Flight Track Log - Related Links

Times and Time Zones

All times are in EDT time to prevent confusion due to time zone crossing. See the UCA3596 flight status page for this flight to view local times or setup timezone preferences in your user account.


Time Position Orientation Groundspeed Altitude Reporting Facility
EDT Latitude Longitude Course Direction KTS MPH feet Rate Location/Type
Sun 02:43:39 PM 42.1692 -75.9833 211° Southwest 139 160 2,900  Level New York Center
Sun 02:44:39 PM 42.1383 -76.0200 221° Southwest 146 168 4,000 1,350 Climbing New York Center
Sun 02:45:39 PM 42.1014 -76.0592 218° Southwest 165 190 5,600 1,450 Climbing New York Center
Sun 02:46:39 PM 42.0664 -76.0925 215° Southwest 165 190 6,900 1,250 Climbing New York Center
Sun 02:47:39 PM 42.0336 -76.1264 218° Southwest 165 190 8,100 1,400 Climbing New York Center
Sun 02:48:39 PM 41.9883 -76.1644 212° Southwest 176 203 9,700 1,350 Climbing New York Center
Sun 02:49:00 PM 41.8157 -76.1663 211° Southwest  Level Estimated
Sun 02:49:39 PM 41.9492 -76.2003 214° Southwest 176 203 10,800  Level New York Center
Sun 02:50:39 PM 41.9164 -76.2339 217° Southwest 176 203 12,000 950 Climbing New York Center
Sun 02:51:39 PM 41.8750 -76.2722 215° Southwest 176 203 12,700 750 Climbing New York Center
Sun 02:52:39 PM 41.8250 -76.3181 214° Southwest 193 222 13,500 650 Climbing New York Center
Sun 02:53:39 PM 41.7750 -76.3642 215° Southwest 213 245 14,000 200 Climbing New York Center
Sun 02:54:39 PM 41.7225 -76.4153 216° Southwest 228 262 13,900 -50 Descending New York Center
Sun 02:55:39 PM 41.6725 -76.4639 216° Southwest 246 283 13,900  Level New York Center
Sun 02:56:39 PM 41.6158 -76.5144 214° Southwest 259 298 13,900 50 Level New York Center
Sun 02:57:39 PM 41.5483 -76.5753 214° Southwest 259 298 14,000 50 Climbing New York Center
Sun 02:58:39 PM 41.4914 -76.6311 216° Southwest 259 298 14,000  Level New York Center
Sun 02:59:39 PM 41.4389 -76.6792 214° Southwest 254 292 14,000  Level New York Center
Sun 03:00:39 PM 41.3842 -76.7353 218° Southwest 254 292 14,000  Level New York Center
Sun 03:01:38 PM 41.3233 -76.7825 210° Southwest 254 292 14,000  Level New York Center
Sun 03:02:39 PM 41.2539 -76.7956 188° South 249 287 14,000  Level New York Center
Sun 03:03:39 PM 41.1822 -76.8114 189° South 254 292 14,000  Level New York Center
Sun 03:04:39 PM 41.1150 -76.8217 187° South 254 292 14,000  Level New York Center
Sun 03:05:39 PM 41.0436 -76.8347 188° South 259 298 14,000  Level New York Center
Sun 03:06:39 PM 40.9742 -76.8506 190° South 259 298 14,000  Level New York Center
Sun 03:07:39 PM 40.8983 -76.8658 189° South 259 298 14,000  Level New York Center
Sun 03:08:39 PM 40.8289 -76.8786 188° South 259 298 14,000  Level New York Center
Sun 03:09:39 PM 40.7614 -76.8947 190° South 259 298 14,000  Level New York Center
Sun 03:10:39 PM 40.6914 -76.9156 193° South 259 298 14,000  Level New York Center
Sun 03:11:39 PM 40.6256 -76.9372 194° South 259 298 14,000  Level New York Center
Sun 03:12:39 PM 40.5578 -76.9583 193° South 259 298 14,000 -100 Level New York Center
Sun 03:13:39 PM 40.4922 -76.9797 194° South 254 292 13,800 -550 Descending New York Center
Sun 03:14:39 PM 40.4222 -77.0008 193° South 254 292 12,900 -821 Descending New York Center
Sun 03:16:27 PM 40.3000 -77.0333 191° South 257 296 11,500 -786 Descending Potomac TRACON
Sun 03:17:27 PM 40.2333 -77.0333 180° South 242 278 10,700 -750 Descending Potomac TRACON
Sun 03:18:27 PM 40.1667 -77.0500 191° South 238 274 10,000 -400 Descending Potomac TRACON
Sun 03:19:27 PM 40.1000 -77.0833 201° Southwest 232 267 9,900 -522 Descending Potomac TRACON
Sun 03:20:22 PM 40.0500 -77.1000 194° South 245 282 9,000 -470 Descending Potomac TRACON
Sun 03:21:22 PM 39.9833 -77.1167 191° South 241 277 9,000  Level Potomac TRACON
Sun 03:22:22 PM 39.9167 -77.1333 191° South 239 275 9,000  Level Potomac TRACON
Sun 03:23:28 PM 39.8333 -77.1333 180° South 237 273 9,000 -143 Level Potomac TRACON
Sun 03:24:28 PM 39.7833 -77.1333 180° South 239 275 8,700 -470 Descending Potomac TRACON
Sun 03:25:23 PM 39.7333 -77.2000 226° Southwest 247 284 8,100 -365 Descending Potomac TRACON
Sun 03:26:23 PM 39.6833 -77.2500 218° Southwest 243 280 8,000 -250 Descending Potomac TRACON
Sun 03:27:23 PM 39.6500 -77.3167 237° Southwest 238 274 7,600 -700 Descending Potomac TRACON
Sun 03:28:23 PM 39.5833 -77.3333 191° South 229 264 6,600 -793 Descending Potomac TRACON
Sun 03:29:24 PM 39.5500 -77.4000 237° Southwest 228 262 6,000 -545 Descending Potomac TRACON
Sun 03:30:24 PM 39.5000 -77.4500 218° Southwest 230 265 5,500 -800 Descending Potomac TRACON
Sun 03:31:24 PM 39.4333 -77.4333 169° South 236 272 4,400 -750 Descending Potomac TRACON
Sun 03:32:24 PM 39.3667 -77.4333 180° South 216 249 4,000 -198 Descending Potomac TRACON
Sun 03:33:25 PM 39.3167 -77.4333 180° South 191 220 4,000 -209 Level Potomac TRACON
Sun 03:34:19 PM 39.2667 -77.4333 180° South 193 222 3,600 -522 Descending Potomac TRACON
Sun 03:35:20 PM 39.2167 -77.4333 180° South 165 190 3,000 -298 Descending Potomac TRACON
Sun 03:36:20 PM 39.1667 -77.4333 180° South 172 198 3,000  Level Potomac TRACON
Sun 03:37:21 PM 39.1333 -77.4333 180° South 162 186 3,000 -198 Level Potomac TRACON
Sun 03:38:21 PM 39.0833 -77.4333 180° South 166 191 2,600 -595 Descending Potomac TRACON
Sun 03:39:22 PM 39.0333 -77.4333 180° South 157 181 1,800 -694 Descending Potomac TRACON
Sun 03:40:22 PM 39.0000 -77.4333 180° South 136 157 1,200 -600 Descending Potomac TRACON

Login

Don't have an account? Register now (free) for customized features, flight alerts, and more!